Martinez Lake, Arizona
Current Conditions -  °F | °C
As of 10:57 PM on Thursday 27 Nov 2014 (Local Time) from KNYL Reporting Station
Few Clouds Few Clouds  
Wind Chill: 62°   Ceiling: Unl
Heat Index: 62°   Visibility: 10mi
Dew Point: 26°   Wind: 5mph
Humidity: 25%   Direction: 20°NNE
Pressure: 30.03"   Gusts: NA
Location:  32.7338°N, 114.51°W
Report Text: KNYL 280557Z 02004KT 10SM FEW250 17/M03 A3003 RMK AO2 SLP168 T01671033 10278 20156 50000
Loading
Personal Weather Stations






























Interactive Weather Map New forecast layout! Learn more

10-Day Weather Forecast

Advertisements
Track Severe Weather on mobile